sensor_id;sensor_type;location;lat;lon;timestamp;pressure;altitude;pressure_sealevel;temperature;humidity
9059;BME280;4564;42.034;25.834;2022-11-15T00:00:05;101032.84;;;5.75;99.68
9059;BME280;4564;42.034;25.834;2022-11-15T00:02:32;101034.56;;;5.76;99.70
9059;BME280;4564;42.034;25.834;2022-11-15T00:04:58;101034.00;;;5.82;98.66
9059;BME280;4564;42.034;25.834;2022-11-15T00:07:25;101027.25;;;5.87;99.30
9059;BME280;4564;42.034;25.834;2022-11-15T00:09:52;101024.56;;;5.87;98.97
9059;BME280;4564;42.034;25.834;2022-11-15T00:12:18;101027.94;;;5.89;99.19
9059;BME280;4564;42.034;25.834;2022-11-15T00:14:46;101025.41;;;5.88;99.97
9059;BME280;4564;42.034;25.834;2022-11-15T00:17:13;101025.84;;;5.93;99.32
9059;BME280;4564;42.034;25.834;2022-11-15T00:19:39;101029.22;;;6.05;99.70
9059;BME280;4564;42.034;25.834;2022-11-15T00:22:06;101029.09;;;6.06;99.32
9059;BME280;4564;42.034;25.834;2022-11-15T00:24:32;101023.56;;;6.08;99.79
9059;BME280;4564;42.034;25.834;2022-11-15T00:26:59;101023.44;;;6.19;100.00
9059;BME280;4564;42.034;25.834;2022-11-15T00:29:26;101029.38;;;6.22;99.63
9059;BME280;4564;42.034;25.834;2022-11-15T00:31:54;101022.16;;;6.13;100.00
9059;BME280;4564;42.034;25.834;2022-11-15T00:34:20;101017.03;;;6.10;100.00
9059;BME280;4564;42.034;25.834;2022-11-15T00:36:47;101011.81;;;6.09;100.00
9059;BME280;4564;42.034;25.834;2022-11-15T00:39:13;101012.50;;;6.11;100.00
9059;BME280;4564;42.034;25.834;2022-11-15T00:41:40;101010.81;;;6.10;99.99
9059;BME280;4564;42.034;25.834;2022-11-15T00:44:07;101007.28;;;6.09;100.00
9059;BME280;4564;42.034;25.834;2022-11-15T00:46:33;101009.13;;;6.18;100.00
9059;BME280;4564;42.034;25.834;2022-11-15T00:49:01;101002.88;;;6.27;100.00
9059;BME280;4564;42.034;25.834;2022-11-15T00:51:28;101001.00;;;6.38;100.00
9059;BME280;4564;42.034;25.834;2022-11-15T00:53:54;100999.59;;;6.33;100.00
9059;BME280;4564;42.034;25.834;2022-11-15T00:56:21;100990.97;;;6.30;100.00
9059;BME280;4564;42.034;25.834;2022-11-15T00:58:48;100994.66;;;6.29;99.98
9059;BME280;4564;42.034;25.834;2022-11-15T01:01:14;100998.91;;;6.31;99.99
9059;BME280;4564;42.034;25.834;2022-11-15T01:03:41;100990.66;;;6.43;100.00
9059;BME280;4564;42.034;25.834;2022-11-15T01:06:09;100989.22;;;6.58;100.00
9059;BME280;4564;42.034;25.834;2022-11-15T01:08:37;100987.81;;;6.63;100.00
9059;BME280;4564;42.034;25.834;2022-11-15T01:11:05;100988.22;;;6.68;99.89
9059;BME280;4564;42.034;25.834;2022-11-15T01:13:32;100981.81;;;6.69;99.51
9059;BME280;4564;42.034;25.834;2022-11-15T01:15:59;100985.63;;;6.77;100.00
9059;BME280;4564;42.034;25.834;2022-11-15T01:18:26;100979.38;;;6.76;100.00
9059;BME280;4564;42.034;25.834;2022-11-15T01:20:52;100979.78;;;6.81;100.00
9059;BME280;4564;42.034;25.834;2022-11-15T01:23:20;100985.91;;;6.83;100.00
9059;BME280;4564;42.034;25.834;2022-11-15T01:25:47;100982.75;;;6.88;100.00
9059;BME280;4564;42.034;25.834;2022-11-15T01:28:14;100985.72;;;6.94;100.00
9059;BME280;4564;42.034;25.834;2022-11-15T01:30:40;100974.09;;;6.94;100.00
9059;BME280;4564;42.034;25.834;2022-11-15T01:33:07;100976.66;;;6.95;100.00
9059;BME280;4564;42.034;25.834;2022-11-15T01:35:37;100981.06;;;6.96;100.00
9059;BME280;4564;42.034;25.834;2022-11-15T01:38:04;100979.34;;;6.95;100.00
9059;BME280;4564;42.034;25.834;2022-11-15T01:40:32;100964.56;;;6.99;100.00
9059;BME280;4564;42.034;25.834;2022-11-15T01:42:58;100971.47;;;7.02;99.92
9059;BME280;4564;42.034;25.834;2022-11-15T01:45:25;100967.50;;;7.06;99.79
9059;BME280;4564;42.034;25.834;2022-11-15T01:47:52;100963.97;;;7.05;99.34
9059;BME280;4564;42.034;25.834;2022-11-15T01:50:21;100961.47;;;7.22;99.67
9059;BME280;4564;42.034;25.834;2022-11-15T01:52:48;100967.13;;;7.28;99.75
9059;BME280;4564;42.034;25.834;2022-11-15T01:55:16;100958.19;;;7.28;99.53
9059;BME280;4564;42.034;25.834;2022-11-15T01:57:46;100965.97;;;7.31;99.95
9059;BME280;4564;42.034;25.834;2022-11-15T02:00:14;100960.28;;;7.34;99.95
9059;BME280;4564;42.034;25.834;2022-11-15T02:02:41;100965.97;;;7.31;99.18
9059;BME280;4564;42.034;25.834;2022-11-15T02:05:07;100963.97;;;7.33;99.54
9059;BME280;4564;42.034;25.834;2022-11-15T02:07:34;100968.00;;;7.29;99.03
9059;BME280;4564;42.034;25.834;2022-11-15T02:10:02;100966.38;;;7.36;99.55
9059;BME280;4564;42.034;25.834;2022-11-15T02:12:30;100965.69;;;7.34;99.75
9059;BME280;4564;42.034;25.834;2022-11-15T02:14:58;100966.69;;;7.33;99.43
9059;BME280;4564;42.034;25.834;2022-11-15T02:17:34;100959.19;;;7.27;98.72
9059;BME280;4564;42.034;25.834;2022-11-15T02:20:15;100968.78;;;7.39;99.37
9059;BME280;4564;42.034;25.834;2022-11-15T02:22:54;100957.97;;;7.39;99.68
9059;BME280;4564;42.034;25.834;2022-11-15T02:25:29;100958.97;;;7.38;99.45
9059;BME280;4564;42.034;25.834;2022-11-15T02:28:10;100954.50;;;7.46;99.51
9059;BME280;4564;42.034;25.834;2022-11-15T02:30:44;100948.25;;;7.46;99.55
9059;BME280;4564;42.034;25.834;2022-11-15T02:33:14;100956.53;;;7.44;98.95
9059;BME280;4564;42.034;25.834;2022-11-15T02:35:48;100957.97;;;7.39;99.66
9059;BME280;4564;42.034;25.834;2022-11-15T02:38:20;100954.72;;;7.35;99.52
9059;BME280;4564;42.034;25.834;2022-11-15T02:40:51;100952.19;;;7.34;99.86
9059;BME280;4564;42.034;25.834;2022-11-15T02:43:22;100945.22;;;7.31;99.06
9059;BME280;4564;42.034;25.834;2022-11-15T02:46:12;100944.63;;;7.37;98.83
9059;BME280;4564;42.034;25.834;2022-11-15T02:48:39;100956.88;;;7.32;98.46
9059;BME280;4564;42.034;25.834;2022-11-15T02:51:07;100955.47;;;7.28;97.69
9059;BME280;4564;42.034;25.834;2022-11-15T02:53:34;100952.97;;;7.16;98.60
9059;BME280;4564;42.034;25.834;2022-11-15T02:56:01;100954.16;;;7.04;98.63
9059;BME280;4564;42.034;25.834;2022-11-15T03:01:22;100951.38;;;6.87;99.66
9059;BME280;4564;42.034;25.834;2022-11-15T03:03:56;100944.84;;;6.89;99.90
9059;BME280;4564;42.034;25.834;2022-11-15T03:06:28;100956.47;;;6.99;100.00
9059;BME280;4564;42.034;25.834;2022-11-15T03:08:57;100943.28;;;6.96;100.00
9059;BME280;4564;42.034;25.834;2022-11-15T03:11:29;100937.38;;;7.10;99.72
9059;BME280;4564;42.034;25.834;2022-11-15T03:13:56;100940.34;;;7.07;100.00
9059;BME280;4564;42.034;25.834;2022-11-15T03:16:27;100943.38;;;7.04;99.59
9059;BME280;4564;42.034;25.834;2022-11-15T03:18:57;100942.63;;;7.12;99.87
9059;BME280;4564;42.034;25.834;2022-11-15T03:21:25;100944.47;;;7.11;99.66
9059;BME280;4564;42.034;25.834;2022-11-15T03:23:54;100944.63;;;7.10;100.00
9059;BME280;4564;42.034;25.834;2022-11-15T03:26:21;100944.16;;;7.14;100.00
9059;BME280;4564;42.034;25.834;2022-11-15T03:28:50;100934.94;;;7.17;100.00
9059;BME280;4564;42.034;25.834;2022-11-15T03:31:18;100929.81;;;7.14;99.38
9059;BME280;4564;42.034;25.834;2022-11-15T03:34:04;100929.69;;;7.15;100.00
9059;BME280;4564;42.034;25.834;2022-11-15T03:36:33;100933.38;;;7.14;99.74
9059;BME280;4564;42.034;25.834;2022-11-15T03:39:02;100929.50;;;7.27;100.00
9059;BME280;4564;42.034;25.834;2022-11-15T03:41:31;100924.66;;;7.48;100.00
9059;BME280;4564;42.034;25.834;2022-11-15T03:44:03;100922.44;;;7.43;98.94
9059;BME280;4564;42.034;25.834;2022-11-15T03:46:32;100920.41;;;7.45;99.44
9059;BME280;4564;42.034;25.834;2022-11-15T03:49:00;100916.44;;;7.49;99.28
9059;BME280;4564;42.034;25.834;2022-11-15T03:51:32;100914.41;;;7.51;99.19
9059;BME280;4564;42.034;25.834;2022-11-15T03:53:58;100917.56;;;7.47;99.59
9059;BME280;4564;42.034;25.834;2022-11-15T03:56:25;100916.72;;;7.46;98.98
9059;BME280;4564;42.034;25.834;2022-11-15T03:58:51;100913.16;;;7.46;99.50
9059;BME280;4564;42.034;25.834;2022-11-15T04:01:18;100908.22;;;7.41;99.34
9059;BME280;4564;42.034;25.834;2022-11-15T04:03:45;100906.69;;;7.39;99.65
9059;BME280;4564;42.034;25.834;2022-11-15T04:06:12;100909.47;;;7.47;99.43
9059;BME280;4564;42.034;25.834;2022-11-15T04:08:39;100910.94;;;7.59;100.00
9059;BME280;4564;42.034;25.834;2022-11-15T04:11:06;100909.88;;;7.70;100.00
9059;BME280;4564;42.034;25.834;2022-11-15T04:13:33;100908.41;;;7.75;99.28
9059;BME280;4564;42.034;25.834;2022-11-15T04:15:59;100912.66;;;7.95;98.94
9059;BME280;4564;42.034;25.834;2022-11-15T04:18:26;100906.16;;;7.88;99.55
9059;BME280;4564;42.034;25.834;2022-11-15T04:20:53;100906.47;;;7.85;99.55
9059;BME280;4564;42.034;25.834;2022-11-15T04:23:37;100900.31;;;7.75;99.26
9059;BME280;4564;42.034;25.834;2022-11-15T04:26:22;100904.63;;;7.68;100.00
9059;BME280;4564;42.034;25.834;2022-11-15T04:28:49;100897.84;;;7.64;99.74
9059;BME280;4564;42.034;25.834;2022-11-15T04:31:33;100902.63;;;7.70;100.00
9059;BME280;4564;42.034;25.834;2022-11-15T04:33:59;100901.69;;;7.79;100.00
9059;BME280;4564;42.034;25.834;2022-11-15T04:36:26;100894.28;;;7.81;100.00
9059;BME280;4564;42.034;25.834;2022-11-15T04:39:10;100891.88;;;7.78;100.00
9059;BME280;4564;42.034;25.834;2022-11-15T04:41:38;100892.59;;;7.80;100.00
9059;BME280;4564;42.034;25.834;2022-11-15T04:44:04;100892.25;;;7.83;100.00
9059;BME280;4564;42.034;25.834;2022-11-15T04:46:31;100896.06;;;7.90;100.00
9059;BME280;4564;42.034;25.834;2022-11-15T04:48:57;100891.34;;;7.92;100.00
9059;BME280;4564;42.034;25.834;2022-11-15T04:51:24;100895.44;;;7.96;100.00
9059;BME280;4564;42.034;25.834;2022-11-15T04:53:51;100892.41;;;7.99;100.00
9059;BME280;4564;42.034;25.834;2022-11-15T04:56:17;100901.84;;;7.95;100.00
9059;BME280;4564;42.034;25.834;2022-11-15T04:58:45;100901.31;;;7.92;100.00
9059;BME280;4564;42.034;25.834;2022-11-15T05:01:14;100898.50;;;8.01;99.32
9059;BME280;4564;42.034;25.834;2022-11-15T05:03:41;100896.66;;;7.84;98.61
9059;BME280;4564;42.034;25.834;2022-11-15T05:06:25;100900.06;;;7.86;99.34
9059;BME280;4564;42.034;25.834;2022-11-15T05:08:51;100892.25;;;7.83;99.22
9059;BME280;4564;42.034;25.834;2022-11-15T05:11:18;100894.75;;;7.77;99.22
9059;BME280;4564;42.034;25.834;2022-11-15T05:13:46;100891.81;;;7.70;100.00
9059;BME280;4564;42.034;25.834;2022-11-15T05:16:13;100886.19;;;7.81;100.00
9059;BME280;4564;42.034;25.834;2022-11-15T05:18:40;100893.91;;;7.76;99.84
9059;BME280;4564;42.034;25.834;2022-11-15T05:21:07;100898.22;;;7.69;100.00
9059;BME280;4564;42.034;25.834;2022-11-15T05:23:35;100894.66;;;7.69;100.00
9059;BME280;4564;42.034;25.834;2022-11-15T05:26:01;100888.97;;;7.72;100.00
9059;BME280;4564;42.034;25.834;2022-11-15T05:28:28;100889.66;;;7.74;100.00
9059;BME280;4564;42.034;25.834;2022-11-15T05:31:00;100897.06;;;7.72;100.00
9059;BME280;4564;42.034;25.834;2022-11-15T05:33:27;100897.38;;;7.86;100.00
9059;BME280;4564;42.034;25.834;2022-11-15T05:35:54;100890.34;;;7.93;99.31
9059;BME280;4564;42.034;25.834;2022-11-15T05:38:23;100898.75;;;7.90;99.12
9059;BME280;4564;42.034;25.834;2022-11-15T05:40:50;100899.09;;;7.87;99.12
9059;BME280;4564;42.034;25.834;2022-11-15T05:43:16;100901.22;;;8.01;99.62
9059;BME280;4564;42.034;25.834;2022-11-15T05:45:43;100899.41;;;8.10;98.92
9059;BME280;4564;42.034;25.834;2022-11-15T05:48:11;100911.84;;;8.21;97.71
9059;BME280;4564;42.034;25.834;2022-11-15T05:50:38;100909.78;;;8.15;97.71
9059;BME280;4564;42.034;25.834;2022-11-15T05:53:08;100913.41;;;8.06;98.02
9059;BME280;4564;42.034;25.834;2022-11-15T05:55:36;100921.22;;;8.09;98.19
9059;BME280;4564;42.034;25.834;2022-11-15T05:58:03;100919.75;;;7.96;99.37
9059;BME280;4564;42.034;25.834;2022-11-15T06:00:30;100917.44;;;8.01;98.97
9059;BME280;4564;42.034;25.834;2022-11-15T06:02:56;100914.13;;;7.90;99.84
9059;BME280;4564;42.034;25.834;2022-11-15T06:05:24;100913.25;;;7.89;100.00
9059;BME280;4564;42.034;25.834;2022-11-15T06:07:51;100914.97;;;7.90;100.00
9059;BME280;4564;42.034;25.834;2022-11-15T06:10:17;100919.53;;;7.90;100.00
9059;BME280;4564;42.034;25.834;2022-11-15T06:12:44;100920.50;;;7.89;100.00
9059;BME280;4564;42.034;25.834;2022-11-15T06:15:11;100923.53;;;8.04;100.00
9059;BME280;4564;42.034;25.834;2022-11-15T06:17:37;100919.13;;;8.02;100.00
9059;BME280;4564;42.034;25.834;2022-11-15T06:20:04;100925.44;;;8.11;100.00
9059;BME280;4564;42.034;25.834;2022-11-15T06:22:32;100921.69;;;8.04;100.00
9059;BME280;4564;42.034;25.834;2022-11-15T06:24:59;100921.91;;;8.11;100.00
9059;BME280;4564;42.034;25.834;2022-11-15T06:27:27;100920.84;;;8.04;100.00
9059;BME280;4564;42.034;25.834;2022-11-15T06:29:53;100922.84;;;8.01;100.00
9059;BME280;4564;42.034;25.834;2022-11-15T06:32:20;100937.13;;;8.12;100.00
9059;BME280;4564;42.034;25.834;2022-11-15T06:34:47;100929.94;;;8.20;100.00
9059;BME280;4564;42.034;25.834;2022-11-15T06:37:14;100925.22;;;8.22;100.00
9059;BME280;4564;42.034;25.834;2022-11-15T06:39:42;100927.44;;;8.27;100.00
9059;BME280;4564;42.034;25.834;2022-11-15T06:42:08;100927.28;;;8.46;100.00
9059;BME280;4564;42.034;25.834;2022-11-15T06:44:35;100932.72;;;8.46;100.00
9059;BME280;4564;42.034;25.834;2022-11-15T06:47:02;100925.25;;;8.48;100.00
9059;BME280;4564;42.034;25.834;2022-11-15T06:49:28;100922.88;;;8.45;100.00
9059;BME280;4564;42.034;25.834;2022-11-15T06:51:55;100928.34;;;8.53;100.00
9059;BME280;4564;42.034;25.834;2022-11-15T06:54:22;100931.44;;;8.58;100.00
9059;BME280;4564;42.034;25.834;2022-11-15T06:56:50;100928.66;;;8.50;99.52
9059;BME280;4564;42.034;25.834;2022-11-15T06:59:16;100930.53;;;8.50;100.00
9059;BME280;4564;42.034;25.834;2022-11-15T07:01:43;100925.19;;;8.58;100.00
9059;BME280;4564;42.034;25.834;2022-11-15T07:04:10;100924.53;;;8.64;100.00
9059;BME280;4564;42.034;25.834;2022-11-15T07:06:36;100919.44;;;8.61;99.62
9059;BME280;4564;42.034;25.834;2022-11-15T07:09:03;100921.03;;;8.71;100.00
9059;BME280;4564;42.034;25.834;2022-11-15T07:11:29;100914.25;;;8.67;99.57
9059;BME280;4564;42.034;25.834;2022-11-15T07:13:57;100918.38;;;8.79;99.42
9059;BME280;4564;42.034;25.834;2022-11-15T07:16:24;100917.31;;;8.72;99.56
9059;BME280;4564;42.034;25.834;2022-11-15T07:18:50;100913.63;;;8.73;99.81
9059;BME280;4564;42.034;25.834;2022-11-15T07:21:17;100910.44;;;8.86;100.00
9059;BME280;4564;42.034;25.834;2022-11-15T07:23:44;100917.41;;;8.89;99.50
9059;BME280;4564;42.034;25.834;2022-11-15T07:26:10;100917.81;;;9.02;99.66
9059;BME280;4564;42.034;25.834;2022-11-15T07:28:37;100916.19;;;9.17;98.54
9059;BME280;4564;42.034;25.834;2022-11-15T07:31:05;100907.38;;;9.15;98.29
9059;BME280;4564;42.034;25.834;2022-11-15T07:33:32;100912.59;;;9.08;98.24
9059;BME280;4564;42.034;25.834;2022-11-15T07:35:59;100914.16;;;9.11;98.49
9059;BME280;4564;42.034;25.834;2022-11-15T07:38:27;100910.13;;;9.23;98.74
9059;BME280;4564;42.034;25.834;2022-11-15T07:40:55;100907.25;;;9.24;98.65
9059;BME280;4564;42.034;25.834;2022-11-15T07:43:22;100899.66;;;9.28;98.30
9059;BME280;4564;42.034;25.834;2022-11-15T07:45:49;100910.50;;;9.36;98.41
9059;BME280;4564;42.034;25.834;2022-11-15T07:48:17;100905.59;;;9.40;98.04
9059;BME280;4564;42.034;25.834;2022-11-15T07:50:44;100903.06;;;9.38;97.88
9059;BME280;4564;42.034;25.834;2022-11-15T07:53:10;100906.00;;;9.53;97.82
9059;BME280;4564;42.034;25.834;2022-11-15T07:55:37;100903.78;;;9.56;97.60
9059;BME280;4564;42.034;25.834;2022-11-15T07:58:04;100913.31;;;9.68;97.28
9059;BME280;4564;42.034;25.834;2022-11-15T08:00:31;100916.34;;;9.74;96.68
9059;BME280;4564;42.034;25.834;2022-11-15T08:03:01;100913.84;;;9.80;96.52
9059;BME280;4564;42.034;25.834;2022-11-15T08:05:29;100914.34;;;9.76;96.30
9059;BME280;4564;42.034;25.834;2022-11-15T08:07:56;100915.34;;;9.75;96.06
9059;BME280;4564;42.034;25.834;2022-11-15T08:10:23;100912.28;;;9.69;96.53
9059;BME280;4564;42.034;25.834;2022-11-15T08:12:56;100908.94;;;9.92;96.50
9059;BME280;4564;42.034;25.834;2022-11-15T08:15:22;100911.63;;;9.84;96.40
9059;BME280;4564;42.034;25.834;2022-11-15T08:17:52;100918.75;;;9.85;96.39
9059;BME280;4564;42.034;25.834;2022-11-15T08:20:19;100919.78;;;10.00;96.11
9059;BME280;4564;42.034;25.834;2022-11-15T08:22:47;100912.31;;;9.94;96.09
9059;BME280;4564;42.034;25.834;2022-11-15T08:25:13;100914.34;;;10.00;96.22
9059;BME280;4564;42.034;25.834;2022-11-15T08:27:40;100912.88;;;10.22;95.43
9059;BME280;4564;42.034;25.834;2022-11-15T08:30:07;100911.84;;;10.23;95.35
9059;BME280;4564;42.034;25.834;2022-11-15T08:32:34;100906.59;;;10.37;94.92
9059;BME280;4564;42.034;25.834;2022-11-15T08:35:01;100910.81;;;10.32;94.82
9059;BME280;4564;42.034;25.834;2022-11-15T08:37:28;100909.66;;;10.34;94.88
9059;BME280;4564;42.034;25.834;2022-11-15T08:39:56;100901.16;;;10.45;94.56
9059;BME280;4564;42.034;25.834;2022-11-15T08:42:22;100902.34;;;10.51;94.57
9059;BME280;4564;42.034;25.834;2022-11-15T08:44:49;100895.06;;;10.43;94.18
9059;BME280;4564;42.034;25.834;2022-11-15T08:47:16;100893.31;;;10.59;94.77
9059;BME280;4564;42.034;25.834;2022-11-15T08:49:42;100889.22;;;10.79;94.42
9059;BME280;4564;42.034;25.834;2022-11-15T08:52:09;100889.84;;;10.97;93.49
9059;BME280;4564;42.034;25.834;2022-11-15T08:54:36;100889.13;;;11.11;92.20
9059;BME280;4564;42.034;25.834;2022-11-15T08:57:04;100881.09;;;11.18;91.72
9059;BME280;4564;42.034;25.834;2022-11-15T08:59:30;100886.78;;;11.00;91.73
9059;BME280;4564;42.034;25.834;2022-11-15T09:01:57;100884.22;;;10.99;92.01
9059;BME280;4564;42.034;25.834;2022-11-15T09:04:24;100877.19;;;11.20;91.98
9059;BME280;4564;42.034;25.834;2022-11-15T09:06:50;100869.88;;;11.21;90.89
9059;BME280;4564;42.034;25.834;2022-11-15T09:09:17;100868.88;;;11.22;91.51
9059;BME280;4564;42.034;25.834;2022-11-15T09:11:44;100861.09;;;11.11;91.49
9059;BME280;4564;42.034;25.834;2022-11-15T09:14:12;100863.03;;;10.94;92.38
9059;BME280;4564;42.034;25.834;2022-11-15T09:16:38;100861.44;;;11.08;92.03
9059;BME280;4564;42.034;25.834;2022-11-15T09:19:05;100849.13;;;11.28;91.58
9059;BME280;4564;42.034;25.834;2022-11-15T09:21:32;100850.78;;;11.37;90.75
9059;BME280;4564;42.034;25.834;2022-11-15T09:23:58;100848.22;;;11.35;91.42
9059;BME280;4564;42.034;25.834;2022-11-15T09:26:25;100845.81;;;11.41;91.39
9059;BME280;4564;42.034;25.834;2022-11-15T09:28:52;100839.94;;;11.60;90.72
9059;BME280;4564;42.034;25.834;2022-11-15T09:31:20;100843.22;;;11.78;90.38
9059;BME280;4564;42.034;25.834;2022-11-15T09:33:46;100833.03;;;11.72;89.84
9059;BME280;4564;42.034;25.834;2022-11-15T09:36:13;100832.19;;;11.94;89.48
9059;BME280;4564;42.034;25.834;2022-11-15T09:38:40;100831.00;;;11.97;89.35
9059;BME280;4564;42.034;25.834;2022-11-15T09:41:28;100825.91;;;11.94;89.02
9059;BME280;4564;42.034;25.834;2022-11-15T09:44:00;100823.03;;;11.95;88.19
9059;BME280;4564;42.034;25.834;2022-11-15T09:46:37;100813.38;;;11.93;89.00
9059;BME280;4564;42.034;25.834;2022-11-15T09:49:07;100822.28;;;12.01;89.15
9059;BME280;4564;42.034;25.834;2022-11-15T09:51:36;100817.44;;;12.11;88.74
9059;BME280;4564;42.034;25.834;2022-11-15T09:54:13;100811.31;;;12.09;88.57
9059;BME280;4564;42.034;25.834;2022-11-15T09:56:43;100806.28;;;12.21;88.37
9059;BME280;4564;42.034;25.834;2022-11-15T09:59:17;100795.03;;;12.24;87.35
9059;BME280;4564;42.034;25.834;2022-11-15T10:01:52;100794.75;;;12.34;87.66
9059;BME280;4564;42.034;25.834;2022-11-15T10:04:22;100789.22;;;12.42;86.88
9059;BME280;4564;42.034;25.834;2022-11-15T10:06:52;100788.97;;;12.51;86.16
9059;BME280;4564;42.034;25.834;2022-11-15T10:09:21;100782.09;;;12.55;86.03
9059;BME280;4564;42.034;25.834;2022-11-15T10:11:50;100779.19;;;12.57;85.85
9059;BME280;4564;42.034;25.834;2022-11-15T10:14:18;100761.91;;;12.65;85.54
9059;BME280;4564;42.034;25.834;2022-11-15T10:16:56;100773.44;;;12.81;85.21
9059;BME280;4564;42.034;25.834;2022-11-15T10:19:30;100761.72;;;12.66;84.66
9059;BME280;4564;42.034;25.834;2022-11-15T10:22:02;100759.94;;;12.58;85.39
9059;BME280;4564;42.034;25.834;2022-11-15T10:24:34;100756.34;;;12.87;85.40
9059;BME280;4564;42.034;25.834;2022-11-15T10:27:00;100750.69;;;12.89;84.40
9059;BME280;4564;42.034;25.834;2022-11-15T10:29:27;100753.22;;;12.90;84.80
9059;BME280;4564;42.034;25.834;2022-11-15T10:31:55;100750.84;;;13.17;83.89
9059;BME280;4564;42.034;25.834;2022-11-15T10:34:22;100748.38;;;13.07;83.14
9059;BME280;4564;42.034;25.834;2022-11-15T10:36:54;100750.19;;;13.15;82.86
9059;BME280;4564;42.034;25.834;2022-11-15T10:39:21;100744.31;;;12.82;84.18
9059;BME280;4564;42.034;25.834;2022-11-15T10:41:48;100745.25;;;12.89;84.34
9059;BME280;4564;42.034;25.834;2022-11-15T10:44:19;100739.59;;;12.90;84.45
9059;BME280;4564;42.034;25.834;2022-11-15T10:46:47;100736.84;;;13.05;84.19
9059;BME280;4564;42.034;25.834;2022-11-15T10:49:17;100734.25;;;13.54;83.70
9059;BME280;4564;42.034;25.834;2022-11-15T10:51:45;100733.44;;;13.81;81.74
9059;BME280;4564;42.034;25.834;2022-11-15T10:54:13;100725.63;;;13.78;80.69
9059;BME280;4564;42.034;25.834;2022-11-15T10:56:41;100728.31;;;14.00;80.94
9059;BME280;4564;42.034;25.834;2022-11-15T10:59:14;100726.53;;;14.13;79.72
9059;BME280;4564;42.034;25.834;2022-11-15T11:01:45;100711.47;;;14.24;78.70
9059;BME280;4564;42.034;25.834;2022-11-15T11:04:13;100712.22;;;14.39;78.94
9059;BME280;4564;42.034;25.834;2022-11-15T11:06:47;100710.53;;;14.38;77.57
9059;BME280;4564;42.034;25.834;2022-11-15T11:09:21;100703.91;;;14.19;77.79
9059;BME280;4564;42.034;25.834;2022-11-15T11:11:49;100706.56;;;14.41;77.87
9059;BME280;4564;42.034;25.834;2022-11-15T11:14:19;100692.19;;;14.32;77.33
9059;BME280;4564;42.034;25.834;2022-11-15T11:16:47;100695.38;;;14.36;78.13
9059;BME280;4564;42.034;25.834;2022-11-15T11:19:22;100684.50;;;14.42;78.42
9059;BME280;4564;42.034;25.834;2022-11-15T11:22:00;100695.00;;;14.39;78.88
9059;BME280;4564;42.034;25.834;2022-11-15T11:24:31;100685.88;;;14.32;78.23
9059;BME280;4564;42.034;25.834;2022-11-15T11:27:04;100684.41;;;14.29;77.95
9059;BME280;4564;42.034;25.834;2022-11-15T11:29:38;100678.53;;;14.32;78.05
9059;BME280;4564;42.034;25.834;2022-11-15T11:32:10;100674.72;;;14.26;78.18
9059;BME280;4564;42.034;25.834;2022-11-15T11:34:45;100677.03;;;14.57;77.62
9059;BME280;4564;42.034;25.834;2022-11-15T11:37:17;100665.94;;;14.72;77.35
9059;BME280;4564;42.034;25.834;2022-11-15T11:39:48;100669.09;;;14.76;75.45
9059;BME280;4564;42.034;25.834;2022-11-15T11:42:23;100672.88;;;14.75;75.21
9059;BME280;4564;42.034;25.834;2022-11-15T11:44:55;100668.94;;;14.84;75.58
9059;BME280;4564;42.034;25.834;2022-11-15T11:47:24;100662.63;;;14.96;74.68
9059;BME280;4564;42.034;25.834;2022-11-15T11:49:56;100661.78;;;14.89;75.92
9059;BME280;4564;42.034;25.834;2022-11-15T11:52:28;100655.66;;;14.81;75.18
9059;BME280;4564;42.034;25.834;2022-11-15T11:54:59;100650.59;;;14.71;75.91
9059;BME280;4564;42.034;25.834;2022-11-15T11:57:30;100649.34;;;14.74;76.33
9059;BME280;4564;42.034;25.834;2022-11-15T12:00:01;100647.47;;;14.81;77.07
9059;BME280;4564;42.034;25.834;2022-11-15T12:02:30;100641.16;;;14.87;75.74
9059;BME280;4564;42.034;25.834;2022-11-15T12:05:00;100642.66;;;14.83;75.59
9059;BME280;4564;42.034;25.834;2022-11-15T12:07:31;100635.00;;;14.52;75.43
9059;BME280;4564;42.034;25.834;2022-11-15T12:09:59;100637.53;;;14.60;74.67
9059;BME280;4564;42.034;25.834;2022-11-15T12:12:30;100629.16;;;14.75;73.65
9059;BME280;4564;42.034;25.834;2022-11-15T12:14:59;100624.91;;;14.59;72.65
9059;BME280;4564;42.034;25.834;2022-11-15T12:17:29;100622.34;;;14.44;73.04
9059;BME280;4564;42.034;25.834;2022-11-15T12:19:57;100616.88;;;14.44;71.43
9059;BME280;4564;42.034;25.834;2022-11-15T12:22:26;100619.63;;;14.44;68.14
9059;BME280;4564;42.034;25.834;2022-11-15T12:24:57;100611.56;;;14.29;70.56
9059;BME280;4564;42.034;25.834;2022-11-15T12:27:28;100604.81;;;14.32;72.99
9059;BME280;4564;42.034;25.834;2022-11-15T12:29:58;100612.50;;;14.15;73.12
9059;BME280;4564;42.034;25.834;2022-11-15T12:32:26;100605.38;;;14.14;71.16
9059;BME280;4564;42.034;25.834;2022-11-15T12:34:54;100601.44;;;14.23;70.07
9059;BME280;4564;42.034;25.834;2022-11-15T12:40:25;100598.63;;;14.10;66.72
9059;BME280;4564;42.034;25.834;2022-11-15T12:43:02;100603.06;;;14.11;66.30
9059;BME280;4564;42.034;25.834;2022-11-15T12:45:30;100601.19;;;14.12;65.83
9059;BME280;4564;42.034;25.834;2022-11-15T12:48:21;100592.34;;;14.10;66.58
9059;BME280;4564;42.034;25.834;2022-11-15T12:50:58;100589.03;;;14.21;67.34
9059;BME280;4564;42.034;25.834;2022-11-15T12:53:26;100589.25;;;14.26;66.98
9059;BME280;4564;42.034;25.834;2022-11-15T12:58:48;100581.91;;;14.26;67.67
9059;BME280;4564;42.034;25.834;2022-11-15T13:04:13;100574.13;;;14.17;67.68
9059;BME280;4564;42.034;25.834;2022-11-15T13:06:49;100573.81;;;13.99;67.12
9059;BME280;4564;42.034;25.834;2022-11-15T13:11:58;100568.91;;;13.81;67.54
9059;BME280;4564;42.034;25.834;2022-11-15T13:17:23;100565.66;;;13.64;69.75
9059;BME280;4564;42.034;25.834;2022-11-15T13:19:52;100559.78;;;13.67;71.24
9059;BME280;4564;42.034;25.834;2022-11-15T13:22:21;100551.81;;;13.66;71.73
9059;BME280;4564;42.034;25.834;2022-11-15T13:25:13;100553.88;;;13.57;71.05
9059;BME280;4564;42.034;25.834;2022-11-15T13:27:41;100551.94;;;13.51;71.10
9059;BME280;4564;42.034;25.834;2022-11-15T13:30:12;100551.09;;;13.51;70.27